Time;durP1;ratioP1;P1;durP2;ratioP2;P2;SDS_P1;SDS_P2;PMS_P1;PMS_P2;Temp;Humidity;BMP_temperature;BMP_pressure;BME280_temperature;BME280_humidity;BME280_pressure;Samples;Min_cycle;Max_cycle;Signal;HPM_P1;HPM_P2
2021/12/21 00:01:11;;;;;;;16.50;10.30;;;;;;;;;;5072282;28;20129;-76
2021/12/21 00:03:37;;;;;;;17.13;9.68;;;;;;;;;;5071482;28;20089;-76
2021/12/21 00:06:03;;;;;;;14.77;8.23;;;;;;;;;;5071747;28;20048;-76
2021/12/21 00:08:29;;;;;;;13.90;7.35;;;;;;;;;;5071858;28;20044;-76
2021/12/21 00:10:57;;;;;;;14.70;8.10;;;;;;;;;;5071552;28;20040;-76
2021/12/21 00:18:29;;;;;;;12.75;8.38;;;;;;;;;;5089116;28;20044;-76
2021/12/21 00:26:23;;;;;;;14.85;8.63;;;;;;;;;;5053712;28;20052;-76
2021/12/21 00:29:01;;;;;;;16.60;9.60;;;;;;;;;;5098957;28;20517;-76
2021/12/21 00:31:32;;;;;;;22.00;9.80;;;;;;;;;;5112044;28;20093;-76
2021/12/21 00:33:58;;;;;;;16.77;8.98;;;;;;;;;;5094964;28;20039;-76
2021/12/21 00:36:25;;;;;;;15.65;9.63;;;;;;;;;;5111931;28;20083;-76
2021/12/21 00:38:52;;;;;;;26.35;10.40;;;;;;;;;;5094634;28;20449;-76
2021/12/21 00:41:19;;;;;;;14.43;9.63;;;;;;;;;;5111878;28;20574;-77
2021/12/21 00:43:46;;;;;;;19.90;9.30;;;;;;;;;;5111688;28;20130;-76
2021/12/21 00:46:12;;;;;;;14.88;8.63;;;;;;;;;;5094397;28;20039;-76
2021/12/21 00:48:49;;;;;;;15.52;9.65;;;;;;;;;;5092879;28;20031;-76
2021/12/21 00:51:16;;;;;;;19.63;9.23;;;;;;;;;;5094328;28;20122;-76
2021/12/21 00:53:42;;;;;;;17.92;9.85;;;;;;;;;;5111195;28;20040;-76
2021/12/21 00:56:08;;;;;;;14.05;9.60;;;;;;;;;;5111445;28;20062;-76
2021/12/21 00:58:34;;;;;;;16.20;8.50;;;;;;;;;;5111305;28;20540;-76
2021/12/21 01:01:05;;;;;;;12.55;7.18;;;;;;;;;;5094599;28;20043;-76
2021/12/21 01:03:33;;;;;;;9.10;6.03;;;;;;;;;;5111085;28;20094;-76
2021/12/21 01:06:11;;;;;;;13.20;7.32;;;;;;;;;;5094209;28;20088;-76
2021/12/21 01:11:36;;;;;;;12.10;7.53;;;;;;;;;;5111011;28;20039;-76
2021/12/21 01:17:14;;;;;;;11.13;7.00;;;;;;;;;;5111134;28;20072;-77
2021/12/21 01:19:47;;;;;;;16.83;7.88;;;;;;;;;;5108996;28;20047;-77
2021/12/21 01:22:20;;;;;;;11.23;6.85;;;;;;;;;;5111325;28;20050;-76
2021/12/21 01:28:04;;;;;;;13.88;7.45;;;;;;;;;;5111084;28;20553;-77
2021/12/21 01:30:18;;;;;;;11.30;6.97;;;;;;;;;;5102384;28;20464;-77
2021/12/21 01:35:28;;;;;;;10.60;6.50;;;;;;;;;;5109987;28;20126;-77
2021/12/21 01:38:01;;;;;;;10.30;6.13;;;;;;;;;;5094116;28;20134;-77
2021/12/21 01:40:37;;;;;;;17.67;6.97;;;;;;;;;;5110776;28;20098;-77
2021/12/21 01:51:19;;;;;;;10.70;6.03;;;;;;;;;;5089688;28;20177;-77
2021/12/21 01:53:46;;;;;;;11.77;6.55;;;;;;;;;;5073244;28;20067;-77
2021/12/21 01:56:12;;;;;;;13.45;7.18;;;;;;;;;;5073306;28;20036;-77
2021/12/21 01:58:39;;;;;;;16.05;5.65;;;;;;;;;;5073167;28;20039;-77
2021/12/21 02:01:07;;;;;;;12.35;4.63;;;;;;;;;;5073273;28;20454;-77
2021/12/21 02:03:33;;;;;;;9.52;4.88;;;;;;;;;;5072581;28;20102;-77
2021/12/21 02:06:00;;;;;;;10.23;4.05;;;;;;;;;;5073156;28;20059;-77
2021/12/21 02:08:26;;;;;;;6.18;3.85;;;;;;;;;;5089793;28;20035;-77
2021/12/21 02:10:52;;;;;;;9.18;3.72;;;;;;;;;;5073434;28;20029;-77
2021/12/21 02:13:18;;;;;;;9.85;4.07;;;;;;;;;;5073247;28;20036;-77
2021/12/21 02:15:44;;;;;;;13.45;4.05;;;;;;;;;;5089912;28;20044;-77
2021/12/21 02:20:44;;;;;;;7.93;5.25;;;;;;;;;;5090051;28;20048;-77
2021/12/21 02:23:15;;;;;;;13.93;4.65;;;;;;;;;;5073092;28;20040;-77
2021/12/21 02:31:09;;;;;;;8.07;3.70;;;;;;;;;;5094109;28;20112;-77
2021/12/21 02:33:35;;;;;;;8.38;3.50;;;;;;;;;;5072730;28;20073;-77
2021/12/21 02:36:02;;;;;;;5.15;3.70;;;;;;;;;;5089501;28;20451;-77
2021/12/21 02:38:28;;;;;;;9.57;4.50;;;;;;;;;;5089667;28;20036;-77
2021/12/21 02:40:55;;;;;;;5.05;3.65;;;;;;;;;;5089880;28;20085;-77
2021/12/21 02:43:21;;;;;;;7.05;3.75;;;;;;;;;;5089178;28;20085;-77
2021/12/21 02:45:47;;;;;;;6.07;2.95;;;;;;;;;;5073673;28;20559;-77
2021/12/21 02:48:13;;;;;;;4.38;2.78;;;;;;;;;;5076415;28;20052;-77
2021/12/21 02:50:40;;;;;;;7.78;2.65;;;;;;;;;;5093336;28;20534;-77
2021/12/21 02:53:06;;;;;;;7.20;2.28;;;;;;;;;;5076299;28;20119;-77
2021/12/21 02:55:32;;;;;;;4.95;2.92;;;;;;;;;;5076329;28;20044;-77
2021/12/21 02:57:59;;;;;;;4.20;2.78;;;;;;;;;;5093083;28;20055;-77
2021/12/21 03:00:25;;;;;;;7.90;3.00;;;;;;;;;;5093135;28;20044;-77
2021/12/21 03:02:52;;;;;;;3.80;2.38;;;;;;;;;;5075893;28;20056;-77
2021/12/21 03:05:18;;;;;;;5.78;2.88;;;;;;;;;;5092764;28;20467;-77
2021/12/21 03:10:15;;;;;;;5.40;3.50;;;;;;;;;;5092866;28;20097;-77
2021/12/21 03:15:23;;;;;;;6.95;3.95;;;;;;;;;;5092933;28;20146;-77
2021/12/21 03:17:49;;;;;;;6.45;3.47;;;;;;;;;;5075829;28;20044;-77
2021/12/21 03:20:16;;;;;;;5.80;3.67;;;;;;;;;;5092790;28;20040;-77
2021/12/21 03:22:42;;;;;;;4.78;3.42;;;;;;;;;;5075507;28;20515;-77
2021/12/21 03:25:08;;;;;;;6.57;3.85;;;;;;;;;;5075954;28;20044;-77
2021/12/21 03:27:34;;;;;;;8.15;4.15;;;;;;;;;;5092613;28;20044;-77
2021/12/21 03:30:00;;;;;;;5.30;3.40;;;;;;;;;;5092563;28;20036;-77
2021/12/21 03:32:26;;;;;;;5.70;3.50;;;;;;;;;;5075467;28;20499;-77
2021/12/21 03:34:52;;;;;;;8.90;4.38;;;;;;;;;;5075619;28;20087;-77
2021/12/21 03:37:18;;;;;;;5.35;3.72;;;;;;;;;;5075330;28;20039;-77
2021/12/21 03:39:45;;;;;;;7.70;4.35;;;;;;;;;;5075535;28;20036;-77
2021/12/21 03:42:12;;;;;;;8.20;4.68;;;;;;;;;;5092129;28;20044;-77
2021/12/21 03:44:38;;;;;;;9.52;4.43;;;;;;;;;;5075469;28;20436;-77
2021/12/21 03:47:05;;;;;;;8.77;5.20;;;;;;;;;;5075268;28;20032;-77
2021/12/21 03:52:08;;;;;;;8.60;4.80;;;;;;;;;;5092167;28;20079;-77
2021/12/21 03:54:35;;;;;;;7.07;4.07;;;;;;;;;;5075346;28;20169;-77
2021/12/21 03:57:02;;;;;;;8.00;4.55;;;;;;;;;;5091376;28;20036;-77
2021/12/21 03:59:28;;;;;;;9.68;4.85;;;;;;;;;;5092134;28;20126;-77
2021/12/21 04:01:54;;;;;;;9.88;4.38;;;;;;;;;;5075017;28;20048;-77
2021/12/21 04:04:22;;;;;;;5.63;3.80;;;;;;;;;;5075231;28;20562;-77
2021/12/21 04:06:48;;;;;;;5.53;4.05;;;;;;;;;;5092044;28;20043;-77
2021/12/21 04:09:14;;;;;;;11.27;4.30;;;;;;;;;;5091860;28;20097;-77
2021/12/21 04:11:40;;;;;;;8.43;4.28;;;;;;;;;;5075297;28;20036;-77
2021/12/21 04:14:06;;;;;;;8.27;4.60;;;;;;;;;;5075174;28;20426;-77
2021/12/21 04:16:32;;;;;;;5.50;3.53;;;;;;;;;;5090741;28;20043;-77
2021/12/21 04:18:58;;;;;;;6.55;3.60;;;;;;;;;;5074883;28;20046;-77
2021/12/21 04:21:25;;;;;;;7.15;3.70;;;;;;;;;;5091666;28;20383;-77
2021/12/21 04:23:51;;;;;;;4.72;2.97;;;;;;;;;;5074773;28;20055;-77
2021/12/21 04:26:17;;;;;;;6.10;3.13;;;;;;;;;;5074864;28;20075;-77
2021/12/21 04:28:43;;;;;;;5.35;2.95;;;;;;;;;;5075003;28;20048;-77
2021/12/21 04:31:10;;;;;;;7.55;3.28;;;;;;;;;;5074629;28;20035;-77
2021/12/21 04:33:37;;;;;;;5.18;3.13;;;;;;;;;;5074712;28;20039;-77
2021/12/21 04:36:04;;;;;;;5.63;3.25;;;;;;;;;;5074761;28;20040;-77
2021/12/21 04:38:35;;;;;;;10.25;3.38;;;;;;;;;;5091630;28;20040;-77
2021/12/21 04:41:03;;;;;;;;;;;;;;;;;;5074963;28;20128;-77
2021/12/21 04:43:29;;;;;;;7.03;2.92;;;;;;;;;;5074508;28;19924;-77
2021/12/21 04:45:55;;;;;;;5.28;3.13;;;;;;;;;;5074292;28;20578;-77
2021/12/21 04:48:21;;;;;;;6.95;3.40;;;;;;;;;;5107357;28;20119;-77
2021/12/21 04:50:47;;;;;;;8.55;3.15;;;;;;;;;;5094461;28;20432;-77
2021/12/21 04:53:14;;;;;;;8.88;3.28;;;;;;;;;;5111453;28;20039;-77
2021/12/21 04:55:40;;;;;;;6.47;3.53;;;;;;;;;;5094717;28;20031;-78
2021/12/21 04:58:06;;;;;;;5.25;2.75;;;;;;;;;;5112179;28;20039;-78
2021/12/21 05:00:32;;;;;;;9.63;4.07;;;;;;;;;;5111630;28;20039;-77
2021/12/21 05:02:58;;;;;;;6.28;3.10;;;;;;;;;;5094564;28;20411;-77
2021/12/21 05:05:24;;;;;;;4.55;3.20;;;;;;;;;;5094596;28;20046;-77
2021/12/21 05:08:04;;;;;;;3.72;3.33;;;;;;;;;;5094517;28;20099;-77
2021/12/21 05:10:31;;;;;;;4.70;3.17;;;;;;;;;;5094675;28;20075;-78
2021/12/21 05:12:57;;;;;;;6.25;3.30;;;;;;;;;;5094297;28;20039;-78
2021/12/21 05:15:22;;;;;;;10.95;3.95;;;;;;;;;;5111122;28;20104;-77
2021/12/21 05:17:48;;;;;;;7.30;3.13;;;;;;;;;;5094794;28;20048;-77
2021/12/21 05:20:14;;;;;;;4.13;3.00;;;;;;;;;;5109889;28;20035;-78
2021/12/21 05:22:40;;;;;;;5.07;2.90;;;;;;;;;;5094110;28;20100;-77
2021/12/21 05:25:07;;;;;;;5.80;3.40;;;;;;;;;;5094090;28;20047;-77
2021/12/21 05:27:33;;;;;;;4.65;3.10;;;;;;;;;;5110835;28;20396;-77
2021/12/21 05:29:58;;;;;;;7.53;3.60;;;;;;;;;;5093892;28;20074;-77
2021/12/21 05:32:25;;;;;;;9.60;4.00;;;;;;;;;;5093684;28;20555;-77
2021/12/21 05:34:51;;;;;;;6.68;4.07;;;;;;;;;;5094238;28;20467;-77
2021/12/21 05:37:17;;;;;;;8.88;3.45;;;;;;;;;;5094062;28;20044;-77
2021/12/21 05:42:21;;;;;;;7.53;3.65;;;;;;;;;;5110945;28;20090;-77
2021/12/21 05:44:49;;;;;;;4.57;2.90;;;;;;;;;;5110628;28;20043;-77
2021/12/21 05:47:16;;;;;;;5.82;3.42;;;;;;;;;;5094038;28;20047;-77
2021/12/21 05:49:42;;;;;;;5.35;3.13;;;;;;;;;;5095464;28;20044;-77
2021/12/21 05:52:08;;;;;;;5.38;2.58;;;;;;;;;;5073323;28;20490;-77
2021/12/21 05:54:34;;;;;;;4.47;2.58;;;;;;;;;;5089814;28;20036;-77
2021/12/21 05:57:00;;;;;;;5.88;2.97;;;;;;;;;;5073348;28;20032;-77
2021/12/21 05:59:26;;;;;;;5.38;2.67;;;;;;;;;;5073371;28;20575;-77
2021/12/21 06:01:52;;;;;;;5.70;2.67;;;;;;;;;;5090258;28;20178;-77
2021/12/21 06:04:18;;;;;;;4.07;2.40;;;;;;;;;;5090062;28;20154;-77
2021/12/21 06:06:44;;;;;;;6.05;2.40;;;;;;;;;;5073365;28;20039;-77
2021/12/21 06:09:13;;;;;;;3.67;1.95;;;;;;;;;;5090372;28;20028;-77
2021/12/21 06:11:47;;;;;;;4.80;2.08;;;;;;;;;;5090009;28;20131;-77
2021/12/21 06:14:48;;;;;;;5.47;1.92;;;;;;;;;;5073180;28;20051;-77
2021/12/21 06:27:52;;;;;;;3.75;2.08;;;;;;;;;;5093863;28;20407;-77
2021/12/21 06:30:18;;;;;;;6.07;2.55;;;;;;;;;;5093800;28;20065;-77
2021/12/21 06:32:45;;;;;;;4.65;2.28;;;;;;;;;;5093722;28;20040;-77
2021/12/21 06:35:11;;;;;;;6.75;2.78;;;;;;;;;;5077100;28;20074;-77
2021/12/21 06:37:37;;;;;;;10.23;2.13;;;;;;;;;;5076709;28;20047;-77
2021/12/21 06:40:03;;;;;;;4.95;2.28;;;;;;;;;;5076764;28;20407;-77
2021/12/21 06:42:30;;;;;;;5.78;2.00;;;;;;;;;;5093502;28;20065;-77
2021/12/21 06:44:59;;;;;;;2.03;1.80;;;;;;;;;;5076301;28;20408;-76
2021/12/21 06:52:55;;;;;;;3.80;1.90;;;;;;;;;;5113756;28;20036;-77
2021/12/21 06:55:21;;;;;;;4.70;1.75;;;;;;;;;;5096368;28;20071;-76
2021/12/21 06:57:47;;;;;;;5.05;2.08;;;;;;;;;;5113736;28;20126;-76
2021/12/21 07:00:14;;;;;;;6.03;1.77;;;;;;;;;;5082462;28;20068;-76
2021/12/21 07:02:41;;;;;;;6.80;2.10;;;;;;;;;;5083607;28;20135;-76
2021/12/21 07:05:08;;;;;;;9.65;1.85;;;;;;;;;;5084412;28;20548;-77
2021/12/21 07:07:34;;;;;;;9.27;2.72;;;;;;;;;;5083293;28;20408;-76
2021/12/21 07:10:04;;;;;;;6.75;2.00;;;;;;;;;;5081695;28;20043;-76
2021/12/21 07:18:13;;;;;;;3.90;2.15;;;;;;;;;;5091423;28;20036;-76
2021/12/21 07:20:40;;;;;;;4.30;1.50;;;;;;;;;;5083831;28;20446;-76
2021/12/21 07:23:06;;;;;;;2.97;1.50;;;;;;;;;;5082577;28;20063;-76
2021/12/21 07:25:32;;;;;;;5.13;1.63;;;;;;;;;;5091855;28;20047;-76
2021/12/21 07:27:58;;;;;;;2.67;1.42;;;;;;;;;;5093510;28;20043;-76
2021/12/21 07:30:24;;;;;;;6.70;2.03;;;;;;;;;;5093052;28;20105;-76
2021/12/21 07:32:50;;;;;;;5.78;1.80;;;;;;;;;;5092341;28;20036;-78
2021/12/21 07:35:17;;;;;;;2.00;1.42;;;;;;;;;;5080614;28;20036;-76
2021/12/21 07:37:43;;;;;;;3.88;1.33;;;;;;;;;;5081827;28;20043;-76
2021/12/21 07:40:10;;;;;;;5.05;1.70;;;;;;;;;;5080357;28;20044;-76
2021/12/21 07:42:36;;;;;;;2.70;1.75;;;;;;;;;;5077828;28;20110;-77
2021/12/21 07:45:02;;;;;;;4.15;1.80;;;;;;;;;;5077742;28;20048;-76
2021/12/21 07:47:28;;;;;;;2.88;1.80;;;;;;;;;;5079383;28;20106;-76
2021/12/21 07:49:54;;;;;;;6.07;2.08;;;;;;;;;;5079834;28;20036;-76
2021/12/21 07:52:20;;;;;;;5.00;2.47;;;;;;;;;;5078551;28;20721;-77
2021/12/21 07:54:46;;;;;;;4.57;1.90;;;;;;;;;;5076936;28;20048;-77
2021/12/21 07:57:12;;;;;;;2.65;1.95;;;;;;;;;;5078350;28;20044;-76
2021/12/21 07:59:38;;;;;;;3.63;2.15;;;;;;;;;;5077869;28;20047;-77
2021/12/21 08:02:05;;;;;;;3.28;2.30;;;;;;;;;;5076879;28;20128;-76
2021/12/21 08:04:33;;;;;;;6.57;2.05;;;;;;;;;;5078651;28;20044;-77
2021/12/21 08:07:05;;;;;;;6.35;2.55;;;;;;;;;;5077355;28;20049;-76
2021/12/21 08:09:37;;;;;;;6.97;2.53;;;;;;;;;;5076081;28;20488;-76
2021/12/21 08:12:13;;;;;;;7.35;2.67;;;;;;;;;;5077475;28;20437;-76
2021/12/21 08:14:39;;;;;;;6.82;2.53;;;;;;;;;;5062088;28;20050;-76
2021/12/21 08:17:05;;;;;;;6.65;2.55;;;;;;;;;;5077993;28;20040;-77
2021/12/21 08:19:31;;;;;;;4.80;2.67;;;;;;;;;;5082054;28;20090;-77
2021/12/21 08:21:57;;;;;;;3.58;2.25;;;;;;;;;;5087608;28;20047;-76
2021/12/21 08:24:23;;;;;;;3.78;2.10;;;;;;;;;;5087714;28;20040;-76
2021/12/21 08:26:49;;;;;;;9.65;3.53;;;;;;;;;;5087876;28;20082;-76
2021/12/21 08:29:15;;;;;;;6.60;2.45;;;;;;;;;;5087918;28;20472;-76
2021/12/21 08:31:41;;;;;;;11.50;3.53;;;;;;;;;;5088742;28;20039;-76
2021/12/21 08:34:07;;;;;;;8.32;2.15;;;;;;;;;;5088650;28;20062;-76
2021/12/21 08:36:33;;;;;;;123.55;12.20;;;;;;;;;;5088645;28;20044;-76
2021/12/21 08:38:59;;;;;;;5.18;2.70;;;;;;;;;;5089529;28;20484;-76
2021/12/21 08:41:26;;;;;;;9.70;4.38;;;;;;;;;;5088825;28;20076;-76
2021/12/21 08:43:53;;;;;;;6.97;4.20;;;;;;;;;;5086379;28;20047;-75
2021/12/21 08:46:19;;;;;;;7.38;3.38;;;;;;;;;;5087085;28;20097;-76
2021/12/21 08:48:46;;;;;;;9.55;4.07;;;;;;;;;;5087225;28;20548;-76
2021/12/21 08:51:12;;;;;;;9.85;3.47;;;;;;;;;;5087314;28;20040;-76
2021/12/21 08:53:42;;;;;;;5.32;3.35;;;;;;;;;;5087502;28;20040;-76
2021/12/21 08:56:08;;;;;;;10.15;4.30;;;;;;;;;;5087129;28;20403;-76
2021/12/21 08:58:34;;;;;;;8.57;4.13;;;;;;;;;;5086794;28;20169;-76
2021/12/21 09:01:00;;;;;;;8.50;4.15;;;;;;;;;;5087146;28;20599;-76
2021/12/21 09:03:26;;;;;;;8.27;3.83;;;;;;;;;;5086824;28;20408;-76
2021/12/21 09:05:52;;;;;;;8.35;3.72;;;;;;;;;;5087010;28;20052;-76
2021/12/21 09:08:18;;;;;;;7.82;3.90;;;;;;;;;;5086542;28;20040;-76
2021/12/21 09:10:45;;;;;;;7.07;4.03;;;;;;;;;;5086818;28;20039;-76
2021/12/21 09:13:11;;;;;;;7.72;4.28;;;;;;;;;;5086893;28;20036;-76
2021/12/21 09:15:37;;;;;;;9.35;4.20;;;;;;;;;;5086786;28;20128;-76
2021/12/21 09:18:03;;;;;;;10.73;4.60;;;;;;;;;;5086887;28;20131;-77
2021/12/21 09:20:30;;;;;;;14.55;4.97;;;;;;;;;;5086308;28;20056;-76
2021/12/21 09:22:56;;;;;;;8.90;4.53;;;;;;;;;;5086659;28;20040;-76
2021/12/21 09:25:23;;;;;;;9.27;4.28;;;;;;;;;;5086561;28;20303;-76
2021/12/21 09:27:49;;;;;;;8.68;4.53;;;;;;;;;;5086868;28;20518;-76
2021/12/21 09:30:17;;;;;;;9.07;4.95;;;;;;;;;;5086690;28;20113;-76
2021/12/21 09:32:43;;;;;;;11.52;4.80;;;;;;;;;;5086667;28;20383;-76
2021/12/21 09:35:09;;;;;;;8.25;5.00;;;;;;;;;;5086690;28;20138;-76
2021/12/21 09:37:35;;;;;;;10.30;5.03;;;;;;;;;;5086536;28;20395;-76
2021/12/21 09:40:05;;;;;;;8.40;5.30;;;;;;;;;;5086391;28;20039;-76
2021/12/21 09:42:32;;;;;;;10.55;5.20;;;;;;;;;;5088267;28;20036;-77
2021/12/21 09:44:58;;;;;;;10.57;5.35;;;;;;;;;;5089931;28;20098;-76
2021/12/21 09:47:26;;;;;;;13.10;5.00;;;;;;;;;;5089987;28;20399;-76
2021/12/21 09:49:52;;;;;;;12.98;5.97;;;;;;;;;;5089950;28;20072;-76
2021/12/21 09:52:20;;;;;;;12.07;6.05;;;;;;;;;;5090260;28;20119;-76
2021/12/21 09:54:46;;;;;;;13.43;5.93;;;;;;;;;;5089894;28;20039;-76
2021/12/21 09:57:16;;;;;;;11.27;5.07;;;;;;;;;;5093791;28;20126;-76
2021/12/21 09:59:42;;;;;;;12.88;5.90;;;;;;;;;;5094416;28;20055;-76
2021/12/21 10:02:08;;;;;;;12.95;5.45;;;;;;;;;;5094405;28;20104;-76
2021/12/21 10:04:44;;;;;;;10.63;5.63;;;;;;;;;;5094432;28;20487;-76
2021/12/21 10:07:12;;;;;;;15.23;6.32;;;;;;;;;;5094244;28;20036;-76
2021/12/21 10:09:43;;;;;;;11.90;5.72;;;;;;;;;;5094403;28;20043;-74
2021/12/21 10:12:13;;;;;;;12.07;5.70;;;;;;;;;;5087435;28;20037;-76
2021/12/21 10:14:39;;;;;;;12.10;5.78;;;;;;;;;;5073882;28;20553;-76
2021/12/21 10:17:07;;;;;;;11.48;5.78;;;;;;;;;;5073861;28;20128;-76
2021/12/21 10:19:34;;;;;;;12.77;6.53;;;;;;;;;;5074317;28;20127;-76
2021/12/21 10:22:10;;;;;;;11.80;6.03;;;;;;;;;;5073923;28;20044;-76
2021/12/21 10:24:43;;;;;;;13.30;7.18;;;;;;;;;;5073646;28;20507;-76
2021/12/21 10:27:10;;;;;;;16.17;6.40;;;;;;;;;;5073653;28;20378;-76
2021/12/21 10:30:09;;;;;;;16.83;7.18;;;;;;;;;;5073617;28;20047;-75
2021/12/21 10:32:36;;;;;;;14.32;6.72;;;;;;;;;;5041206;28;20044;-76
2021/12/21 10:35:05;;;;;;;12.18;6.30;;;;;;;;;;5073929;28;20070;-76
2021/12/21 10:37:32;;;;;;;18.00;7.57;;;;;;;;;;5073383;28;20426;-76
2021/12/21 10:40:24;;;;;;;16.70;7.15;;;;;;;;;;5073526;28;20200;-76
2021/12/21 10:42:52;;;;;;;20.75;7.50;;;;;;;;;;5076973;28;20443;-76
2021/12/21 10:45:19;;;;;;;17.73;7.57;;;;;;;;;;5093861;28;20084;-76
2021/12/21 10:47:46;;;;;;;12.93;7.50;;;;;;;;;;5076816;28;20081;-75
2021/12/21 10:50:13;;;;;;;11.00;7.07;;;;;;;;;;5092068;28;20036;-76
2021/12/21 10:52:40;;;;;;;13.02;6.30;;;;;;;;;;5093209;28;20043;-76
2021/12/21 10:55:06;;;;;;;19.80;7.05;;;;;;;;;;5093092;28;20091;-76
2021/12/21 10:57:33;;;;;;;18.23;7.35;;;;;;;;;;5093365;28;20043;-76
2021/12/21 11:00:19;;;;;;;14.80;7.03;;;;;;;;;;5093303;28;20122;-76
2021/12/21 11:02:49;;;;;;;13.93;7.38;;;;;;;;;;5076094;28;20523;-76
2021/12/21 11:05:18;;;;;;;15.65;7.47;;;;;;;;;;5093311;28;20048;-76
2021/12/21 11:07:48;;;;;;;20.13;7.90;;;;;;;;;;5092883;28;20036;-76
2021/12/21 11:10:35;;;;;;;15.63;8.30;;;;;;;;;;5076393;28;20039;-76
2021/12/21 11:13:03;;;;;;;16.95;8.27;;;;;;;;;;5076181;28;20062;-75
2021/12/21 11:15:32;;;;;;;14.75;7.82;;;;;;;;;;5092959;28;20048;-76
2021/12/21 11:18:09;;;;;;;16.25;7.25;;;;;;;;;;5093132;28;20523;-76
2021/12/21 11:20:37;;;;;;;14.43;7.50;;;;;;;;;;5111752;28;20057;-76
2021/12/21 11:23:04;;;;;;;17.40;8.13;;;;;;;;;;5113132;28;20522;-76
2021/12/21 11:25:31;;;;;;;15.40;6.97;;;;;;;;;;5113044;28;20539;-76
2021/12/21 11:27:57;;;;;;;14.15;9.00;;;;;;;;;;5096127;28;20502;-76
2021/12/21 11:30:26;;;;;;;19.00;8.43;;;;;;;;;;5113002;28;20076;-76
2021/12/21 11:32:53;;;;;;;11.98;6.93;;;;;;;;;;5096122;28;20123;-76
2021/12/21 11:37:52;;;;;;;16.25;8.70;;;;;;;;;;5113294;28;20090;-76
2021/12/21 11:40:19;;;;;;;19.77;8.45;;;;;;;;;;5095673;28;20100;-76
2021/12/21 11:42:51;;;;;;;13.57;7.13;;;;;;;;;;5095799;28;20085;-76
2021/12/21 11:45:23;;;;;;;13.27;6.20;;;;;;;;;;5095722;28;20040;-77
2021/12/21 11:48:03;;;;;;;15.68;7.13;;;;;;;;;;5095749;28;20040;-76
2021/12/21 11:50:29;;;;;;;14.10;6.53;;;;;;;;;;5093471;28;20031;-76
2021/12/21 11:53:00;;;;;;;13.75;5.95;;;;;;;;;;5112453;28;20157;-76
2021/12/21 11:55:26;;;;;;;;;;;;;;;;;;5095695;28;20035;-76
2021/12/21 11:57:53;;;;;;;12.60;6.65;;;;;;;;;;5112210;28;19922;-76
2021/12/21 12:00:19;;;;;;;15.02;7.18;;;;;;;;;;5095519;28;20051;-76
2021/12/21 12:02:46;;;;;;;12.95;6.05;;;;;;;;;;5112351;28;20059;-76
2021/12/21 12:05:22;;;;;;;14.32;6.13;;;;;;;;;;5095397;28;20514;-76
2021/12/21 12:07:59;;;;;;;11.07;5.45;;;;;;;;;;5112356;28;20043;-76
2021/12/21 12:10:25;;;;;;;13.20;6.45;;;;;;;;;;5095423;28;20036;-76
2021/12/21 12:12:51;;;;;;;13.27;7.15;;;;;;;;;;5095556;28;20036;-76
2021/12/21 12:15:17;;;;;;;12.43;6.90;;;;;;;;;;5112401;28;20039;-76
2021/12/21 12:17:50;;;;;;;9.85;6.18;;;;;;;;;;5111518;28;20062;-76
2021/12/21 12:20:17;;;;;;;15.75;6.40;;;;;;;;;;5075894;28;20055;-76
2021/12/21 12:22:46;;;;;;;10.63;6.45;;;;;;;;;;5091658;28;20142;-76
2021/12/21 12:25:23;;;;;;;13.65;6.32;;;;;;;;;;5074664;28;20394;-76
2021/12/21 12:27:50;;;;;;;12.10;6.28;;;;;;;;;;5091467;28;20085;-76
2021/12/21 12:30:18;;;;;;;12.95;6.60;;;;;;;;;;5091547;28;20097;-76
2021/12/21 12:32:47;;;;;;;10.43;6.32;;;;;;;;;;5091468;28;20438;-76
2021/12/21 12:35:18;;;;;;;9.27;5.43;;;;;;;;;;5074583;28;20047;-76
2021/12/21 12:37:51;;;;;;;12.05;6.15;;;;;;;;;;5091507;28;20407;-76
2021/12/21 12:40:19;;;;;;;12.13;6.07;;;;;;;;;;5074596;28;20072;-76
2021/12/21 12:43:15;;;;;;;11.35;6.10;;;;;;;;;;5074349;28;20032;-76
2021/12/21 12:45:45;;;;;;;11.02;6.15;;;;;;;;;;5069947;28;20130;-76
2021/12/21 12:48:19;;;;;;;15.38;5.95;;;;;;;;;;5090579;28;20399;-76
2021/12/21 12:50:47;;;;;;;13.43;5.80;;;;;;;;;;5094261;28;20477;-76
2021/12/21 12:53:13;;;;;;;15.15;6.07;;;;;;;;;;5110653;28;20101;-76
2021/12/21 12:55:42;;;;;;;8.55;5.10;;;;;;;;;;5094450;28;20043;-76
2021/12/21 12:58:15;;;;;;;10.98;5.32;;;;;;;;;;5111401;28;20444;-76
2021/12/21 13:00:43;;;;;;;10.48;5.15;;;;;;;;;;5094726;28;20074;-75
2021/12/21 13:03:10;;;;;;;13.68;4.97;;;;;;;;;;5111181;28;20070;-76
2021/12/21 13:05:52;;;;;;;10.18;3.85;;;;;;;;;;5094297;28;20081;-75
2021/12/21 13:08:20;;;;;;;10.65;4.28;;;;;;;;;;5111467;28;20614;-76
2021/12/21 13:10:49;;;;;;;11.77;4.22;;;;;;;;;;5111208;28;20047;-75
2021/12/21 13:13:15;;;;;;;8.88;4.55;;;;;;;;;;5111140;28;20035;-76
2021/12/21 13:15:43;;;;;;;8.35;4.10;;;;;;;;;;5082368;28;20089;-75
2021/12/21 13:18:12;;;;;;;7.00;4.35;;;;;;;;;;5075426;28;20051;-75
2021/12/21 13:20:39;;;;;;;10.32;4.47;;;;;;;;;;5070279;28;20044;-75
2021/12/21 13:23:29;;;;;;;10.75;4.88;;;;;;;;;;5053649;28;20051;-75
2021/12/21 13:26:00;;;;;;;8.05;4.43;;;;;;;;;;5070419;28;20508;-75
2021/12/21 13:28:26;;;;;;;;;;;;;;;;;;5070790;28;20411;-75
2021/12/21 13:30:54;;;;;;;9.52;4.25;;;;;;;;;;5070173;28;20007;-75
2021/12/21 13:33:28;;;;;;;11.70;5.68;;;;;;;;;;5070481;28;20127;-75
2021/12/21 13:35:57;;;;;;;11.07;5.10;;;;;;;;;;5050148;28;20036;-75
2021/12/21 13:38:25;;;;;;;10.93;5.85;;;;;;;;;;5066637;28;20139;-75
2021/12/21 13:41:18;;;;;;;13.18;5.47;;;;;;;;;;5066352;28;20048;-75
2021/12/21 13:44:00;;;;;;;12.27;5.07;;;;;;;;;;5047878;28;20056;-75
2021/12/21 13:46:32;;;;;;;16.25;5.97;;;;;;;;;;5049874;28;20048;-75
2021/12/21 13:48:58;;;;;;;12.70;4.95;;;;;;;;;;5055684;28;20105;-75
2021/12/21 13:51:25;;;;;;;14.10;5.40;;;;;;;;;;5069434;28;20131;-75
2021/12/21 13:53:54;;;;;;;13.57;4.40;;;;;;;;;;5086769;28;20047;-75
2021/12/21 13:56:22;;;;;;;9.88;4.65;;;;;;;;;;5069191;28;20089;-76
2021/12/21 13:58:48;;;;;;;10.10;5.72;;;;;;;;;;5070230;28;20785;-75
2021/12/21 14:01:35;;;;;;;10.90;5.03;;;;;;;;;;5086584;28;20047;-75
2021/12/21 14:04:04;;;;;;;11.50;5.20;;;;;;;;;;5086202;28;20039;-75
2021/12/21 14:06:30;;;;;;;10.32;5.53;;;;;;;;;;5069971;28;20528;-75
2021/12/21 14:08:59;;;;;;;13.27;5.70;;;;;;;;;;5086869;28;20518;-75
2021/12/21 14:11:27;;;;;;;10.05;5.75;;;;;;;;;;5069670;28;20129;-75
2021/12/21 14:13:54;;;;;;;15.27;5.63;;;;;;;;;;5086628;28;20044;-75
2021/12/21 14:16:22;;;;;;;9.77;6.00;;;;;;;;;;5069524;28;20040;-75
2021/12/21 14:18:56;;;;;;;12.90;6.57;;;;;;;;;;5068104;28;20075;-75
2021/12/21 14:21:48;;;;;;;12.20;6.10;;;;;;;;;;5086642;28;20055;-75
2021/12/21 14:24:20;;;;;;;14.63;6.95;;;;;;;;;;5082269;28;20036;-75
2021/12/21 14:26:49;;;;;;;14.90;7.43;;;;;;;;;;5086703;28;20048;-75
2021/12/21 14:29:16;;;;;;;13.98;8.75;;;;;;;;;;5086358;28;20121;-75
2021/12/21 14:32:42;;;;;;;14.73;8.70;;;;;;;;;;5086256;28;20495;-75
2021/12/21 14:34:37;;;;;;;13.75;7.97;;;;;;;;;;5095122;28;20295;-75
2021/12/21 14:37:06;;;;;;;15.93;8.02;;;;;;;;;;5069300;28;20407;-75
2021/12/21 14:39:32;;;;;;;15.13;9.10;;;;;;;;;;5086045;28;20044;-75
2021/12/21 14:42:04;;;;;;;13.30;8.25;;;;;;;;;;5088136;28;20040;-75
2021/12/21 14:44:33;;;;;;;14.75;8.88;;;;;;;;;;5073664;28;20496;-75
2021/12/21 14:47:06;;;;;;;13.98;9.02;;;;;;;;;;5073248;28;20522;-75
2021/12/21 14:49:34;;;;;;;16.42;8.57;;;;;;;;;;5071013;28;20055;-75
2021/12/21 14:52:08;;;;;;;15.80;9.02;;;;;;;;;;5072385;28;20036;-75
2021/12/21 14:54:51;;;;;;;17.30;9.45;;;;;;;;;;5072845;28;20044;-75
2021/12/21 14:57:18;;;;;;;20.38;9.38;;;;;;;;;;5089811;28;20051;-75
2021/12/21 14:59:47;;;;;;;17.27;8.88;;;;;;;;;;5089710;28;20096;-75
2021/12/21 15:02:24;;;;;;;17.80;9.98;;;;;;;;;;5072263;28;20063;-75
2021/12/21 15:04:58;;;;;;;18.73;9.80;;;;;;;;;;5088770;28;20070;-75
2021/12/21 15:07:24;;;;;;;19.45;9.20;;;;;;;;;;5072467;28;20089;-75
2021/12/21 15:09:50;;;;;;;17.85;8.70;;;;;;;;;;5072070;28;20427;-75
2021/12/21 15:12:17;;;;;;;22.50;11.50;;;;;;;;;;5072135;28;20040;-75
2021/12/21 15:14:43;;;;;;;19.17;9.77;;;;;;;;;;5088889;28;20071;-75
2021/12/21 15:17:09;;;;;;;18.73;10.63;;;;;;;;;;5088810;28;20160;-75
2021/12/21 15:19:35;;;;;;;20.25;10.07;;;;;;;;;;5089147;28;20040;-75
2021/12/21 15:22:01;;;;;;;21.30;10.32;;;;;;;;;;5088875;28;20086;-75
2021/12/21 15:24:27;;;;;;;18.15;10.77;;;;;;;;;;5088714;28;20444;-75
2021/12/21 15:26:53;;;;;;;19.45;11.52;;;;;;;;;;5088647;28;20127;-74
2021/12/21 15:29:19;;;;;;;24.15;11.70;;;;;;;;;;5088935;28;20040;-75
2021/12/21 15:31:46;;;;;;;19.92;12.35;;;;;;;;;;5088684;28;20487;-75
2021/12/21 15:34:12;;;;;;;19.35;11.27;;;;;;;;;;5088618;28;20085;-75
2021/12/21 15:36:38;;;;;;;21.20;10.80;;;;;;;;;;5088772;28;20140;-75
2021/12/21 15:39:05;;;;;;;19.90;10.45;;;;;;;;;;5088569;28;20040;-75
2021/12/21 15:41:31;;;;;;;17.75;9.77;;;;;;;;;;5088316;28;20485;-75
2021/12/21 15:43:59;;;;;;;17.83;10.32;;;;;;;;;;5074844;28;20032;-75
2021/12/21 15:46:25;;;;;;;19.55;9.88;;;;;;;;;;5092120;28;20476;-75
2021/12/21 15:48:51;;;;;;;19.52;10.95;;;;;;;;;;5091817;28;20126;-75
2021/12/21 15:51:18;;;;;;;17.45;10.55;;;;;;;;;;5092239;28;20484;-75
2021/12/21 15:53:44;;;;;;;19.95;10.05;;;;;;;;;;5090614;28;20054;-75
2021/12/21 15:56:11;;;;;;;19.05;9.80;;;;;;;;;;5091984;28;20471;-74